Time;durP1;ratioP1;P1;durP2;ratioP2;P2;SDS_P1;SDS_P2;PMS_P1;PMS_P2;Temp;Humidity;BMP_temperature;BMP_pressure;BME280_temperature;BME280_humidity;BME280_pressure;Samples;Min_cycle;Max_cycle;Signal;HPM_P1;HPM_P2
2020/12/30 00:02:04;;;;;;;14.67;8.23;;;5.80;99.90;;;;;;4998853;28;20297;-72
2020/12/30 00:04:29;;;;;;;10.40;7.50;;;5.90;99.90;;;;;;4996828;28;20169;-72
2020/12/30 00:06:54;;;;;;;9.43;6.97;;;5.80;99.90;;;;;;4996778;28;20209;-73
2020/12/30 00:09:20;;;;;;;8.43;6.50;;;5.90;99.90;;;;;;4996473;28;20177;-73
2020/12/30 00:11:45;;;;;;;10.80;7.97;;;5.80;99.90;;;;;;4996583;28;20176;-75
2020/12/30 00:17:33;;;;;;;10.20;6.67;;;5.90;99.90;;;;;;4996434;28;20176;-81
2020/12/30 00:19:59;;;;;;;13.03;8.70;;;5.80;99.90;;;;;;4996444;28;20428;-81
2020/12/30 00:22:24;;;;;;;12.63;7.87;;;5.70;99.90;;;;;;4996595;28;20649;-81
2020/12/30 00:24:50;;;;;;;16.50;7.73;;;5.70;99.90;;;;;;4996567;28;20204;-81
2020/12/30 00:27:15;;;;;;;10.67;8.07;;;5.60;99.90;;;;;;4996135;28;20208;-82
2020/12/30 00:29:41;;;;;;;10.20;6.90;;;5.60;99.90;;;;;;4996521;28;20212;-81
2020/12/30 00:32:11;;;;;;;9.90;6.93;;;5.70;99.90;;;;;;4996360;28;20177;-81
2020/12/30 00:34:39;;;;;;;12.17;7.97;;;5.60;99.90;;;;;;4996372;28;20173;-81
2020/12/30 00:37:05;;;;;;;10.70;8.03;;;5.50;99.90;;;;;;4996281;28;20794;-81
2020/12/30 00:39:30;;;;;;;13.52;7.53;;;5.40;99.90;;;;;;4996302;28;20368;-80
2020/12/30 00:41:56;;;;;;;11.43;7.83;;;5.40;99.90;;;;;;4996001;28;20666;-80
2020/12/30 00:44:22;;;;;;;10.33;7.87;;;5.30;99.90;;;;;;4995952;28;20181;-80
2020/12/30 00:46:55;;;;;;;12.73;7.40;;;5.30;99.90;;;;;;4996661;28;20204;-81
2020/12/30 00:49:22;;;;;;;12.73;6.80;;;5.30;99.90;;;;;;4996208;28;20178;-80
2020/12/30 00:51:55;;;;;;;12.53;7.77;;;5.30;99.90;;;;;;4996063;28;20438;-80
2020/12/30 00:54:22;;;;;;;9.57;7.20;;;5.20;99.90;;;;;;4996023;28;20437;-80
2020/12/30 00:56:48;;;;;;;9.07;6.70;;;5.20;99.90;;;;;;4995625;28;20470;-80
2020/12/30 00:59:15;;;;;;;10.33;7.23;;;5.20;99.90;;;;;;4995509;28;20437;-82
2020/12/30 01:01:41;;;;;;;14.90;8.57;;;5.10;99.90;;;;;;4995927;28;20432;-82
2020/12/30 01:04:06;;;;;;;22.00;8.50;;;5.10;99.90;;;;;;4995520;28;20526;-84
2020/12/30 01:06:32;;;;;;;16.20;8.07;;;5.10;99.90;;;;;;4995459;28;20208;-85
2020/12/30 01:08:57;;;;;;;11.60;7.77;;;5.00;99.90;;;;;;4995519;28;20656;-84
2020/12/30 01:11:24;;;;;;;9.60;7.80;;;5.00;99.90;;;;;;4995701;28;20275;-84
2020/12/30 01:13:50;;;;;;;17.20;8.60;;;5.00;99.90;;;;;;4995697;28;20176;-84
2020/12/30 01:16:15;;;;;;;12.63;7.90;;;4.90;99.90;;;;;;4995833;28;20436;-84
2020/12/30 01:18:41;;;;;;;13.40;8.40;;;4.90;99.90;;;;;;4994172;28;20539;-84
2020/12/30 01:21:06;;;;;;;13.37;8.07;;;4.90;99.90;;;;;;4995481;28;20183;-84
2020/12/30 01:23:32;;;;;;;12.37;7.60;;;4.80;99.90;;;;;;4994297;28;20176;-84
2020/12/30 01:25:57;;;;;;;11.77;8.07;;;4.90;99.90;;;;;;4995170;28;20589;-84
2020/12/30 01:28:23;;;;;;;15.07;7.57;;;4.90;99.90;;;;;;4995058;28;20224;-84
2020/12/30 01:30:48;;;;;;;14.40;8.87;;;4.90;99.90;;;;;;4995139;28;20233;-81
2020/12/30 01:33:14;;;;;;;18.57;8.27;;;4.90;99.90;;;;;;4995085;28;20188;-86
2020/12/30 01:35:39;;;;;;;12.57;7.63;;;5.00;99.90;;;;;;4995305;28;20176;-84
2020/12/30 01:38:05;;;;;;;12.43;9.13;;;5.00;99.90;;;;;;4995172;28;20184;-84
2020/12/30 01:40:30;;;;;;;11.50;8.03;;;5.00;99.90;;;;;;4994856;28;20184;-84
2020/12/30 01:42:56;;;;;;;12.37;8.33;;;5.00;99.90;;;;;;4995051;28;20184;-84
2020/12/30 01:45:22;;;;;;;11.80;7.90;;;5.00;99.90;;;;;;4995146;28;20259;-84
2020/12/30 01:47:49;;;;;;;12.70;8.30;;;5.00;99.90;;;;;;4994647;28;20487;-84
2020/12/30 01:50:16;;;;;;;12.50;8.87;;;5.10;99.90;;;;;;4994710;28;20525;-84
2020/12/30 01:52:42;;;;;;;12.60;8.60;;;5.10;99.90;;;;;;4994944;28;20432;-84
2020/12/30 01:55:09;;;;;;;11.67;8.70;;;5.10;99.90;;;;;;4994225;28;20461;-84
2020/12/30 01:57:37;;;;;;;10.63;7.53;;;5.00;99.90;;;;;;4994465;28;20468;-84
2020/12/30 02:00:06;;;;;;;12.57;9.00;;;5.00;99.90;;;;;;4994810;28;20459;-79
2020/12/30 02:02:34;;;;;;;10.33;8.53;;;5.00;99.90;;;;;;4994817;28;20937;-79
2020/12/30 02:05:00;;;;;;;13.23;7.70;;;5.00;99.90;;;;;;4994745;28;20474;-79
2020/12/30 02:07:26;;;;;;;9.70;8.20;;;5.00;99.90;;;;;;4994631;28;20500;-79
2020/12/30 06:30:35;;;;;;;21.37;13.63;;;4.90;99.90;;;;;;5936644;23;20418;-74
2020/12/30 06:33:01;;;;;;;22.53;14.00;;;5.00;99.90;;;;;;4974435;28;20919;-74
2020/12/30 06:35:29;;;;;;;24.13;14.47;;;5.10;99.90;;;;;;4974474;28;20428;-75
2020/12/30 06:37:55;;;;;;;20.83;14.37;;;5.10;99.90;;;;;;4974402;28;20429;-75
2020/12/30 06:40:27;;;;;;;22.30;14.90;;;5.00;99.90;;;;;;4973912;28;20434;-75
2020/12/30 06:42:55;;;;;;;19.67;13.63;;;5.10;99.90;;;;;;4974306;28;20508;-75
2020/12/30 06:45:43;;;;;;;18.77;14.40;;;5.10;99.90;;;;;;4974546;28;20424;-75
2020/12/30 06:48:09;;;;;;;20.20;14.67;;;5.10;99.90;;;;;;4974257;28;20473;-75
2020/12/30 06:50:35;;;;;;;21.33;13.83;;;5.10;99.90;;;;;;4974341;28;20487;-75
2020/12/30 06:53:23;;;;;;;25.50;15.47;;;5.10;99.90;;;;;;4974275;28;20429;-75
2020/12/30 06:55:49;;;;;;;21.77;14.63;;;5.20;99.90;;;;;;4974273;28;20583;-75
2020/12/30 06:58:44;;;;;;;22.70;15.40;;;5.30;99.90;;;;;;4974229;28;20424;-75
2020/12/30 07:01:14;;;;;;;21.30;14.30;;;5.40;99.90;;;;;;4974247;28;20661;-75
2020/12/30 07:03:40;;;;;;;28.07;15.60;;;5.30;99.90;;;;;;4974184;28;20779;-75
2020/12/30 07:06:31;;;;;;;19.80;13.87;;;5.20;99.90;;;;;;4974123;28;20421;-76
2020/12/30 07:09:06;;;;;;;23.07;14.07;;;5.20;99.90;;;;;;4974153;28;20462;-76
2020/12/30 07:11:49;;;;;;;21.53;15.20;;;5.30;99.90;;;;;;4972999;28;20423;-75
2020/12/30 07:20:24;;;;;;;23.20;14.27;;;5.30;99.90;;;;;;4980851;28;20561;-79
2020/12/30 07:22:50;;;;;;;23.90;16.30;;;5.30;99.90;;;;;;4974606;28;20557;-89
2020/12/30 07:25:16;;;;;;;23.10;14.80;;;5.30;99.90;;;;;;4974516;28;20971;-79
2020/12/30 07:27:42;;;;;;;20.53;12.87;;;5.30;99.90;;;;;;4974412;28;20472;-81
2020/12/30 07:30:08;;;;;;;32.43;16.73;;;5.30;99.90;;;;;;4974137;28;20515;-79
2020/12/30 07:32:34;;;;;;;26.00;17.70;;;5.40;99.90;;;;;;4974131;28;20452;-76
2020/12/30 07:35:00;;;;;;;20.47;14.93;;;5.40;99.90;;;;;;4974334;28;20779;-80
2020/12/30 07:37:26;;;;;;;22.47;14.30;;;5.50;99.90;;;;;;4973667;28;20875;-83
2020/12/30 07:39:52;;;;;;;20.73;13.47;;;5.60;99.90;;;;;;4974142;28;20471;-84
2020/12/30 07:42:19;;;;;;;24.70;15.83;;;5.50;99.90;;;;;;4974057;28;20437;-84
2020/12/30 07:48:08;;;;;;;20.20;13.17;;;5.50;99.90;;;;;;4973927;28;20519;-79
2020/12/30 07:50:49;;;;;;;21.10;14.00;;;5.50;99.90;;;;;;4974281;28;20787;-83
2020/12/30 07:53:17;;;;;;;21.33;15.47;;;5.50;99.90;;;;;;4975649;28;20425;-76
2020/12/30 07:55:43;;;;;;;20.93;14.07;;;5.60;99.90;;;;;;4977657;28;20434;-80
2020/12/30 07:58:10;;;;;;;23.43;13.73;;;5.50;99.90;;;;;;4977578;28;20777;-81
2020/12/30 08:00:36;;;;;;;20.23;12.57;;;5.60;99.90;;;;;;4977492;28;20184;-84
2020/12/30 08:03:02;;;;;;;19.50;13.87;;;5.80;99.90;;;;;;4977539;28;20966;-81
2020/12/30 08:05:28;;;;;;;21.90;14.10;;;5.70;99.90;;;;;;4977535;28;20178;-85
2020/12/30 08:07:54;;;;;;;22.10;13.67;;;5.70;99.90;;;;;;4977348;28;20477;-81
2020/12/30 08:10:22;;;;;;;21.20;13.07;;;5.70;99.90;;;;;;4977421;28;20810;-81
2020/12/30 08:12:48;;;;;;;21.17;12.53;;;5.70;99.90;;;;;;4977555;28;20263;-84
2020/12/30 08:18:56;;;;;;;23.60;13.90;;;5.80;99.90;;;;;;4968498;28;20596;-81
2020/12/30 08:21:22;;;;;;;17.17;12.17;;;5.70;99.90;;;;;;4976860;28;20425;-83
2020/12/30 08:23:48;;;;;;;18.03;13.20;;;5.60;99.90;;;;;;4976992;28;20191;-81
2020/12/30 08:29:38;;;;;;;24.27;14.53;;;5.70;99.90;;;;;;4976785;28;20455;-82
2020/12/30 08:32:31;;;;;;;18.97;12.67;;;5.70;99.90;;;;;;4976782;28;20482;-80
2020/12/30 08:34:59;;;;;;;19.97;13.27;;;5.90;99.90;;;;;;4976912;28;20427;-84
2020/12/30 08:40:50;;;;;;;17.57;12.77;;;5.90;99.90;;;;;;4977127;28;20461;-83
2020/12/30 08:43:22;;;;;;;20.60;13.00;;;5.90;99.90;;;;;;4977145;28;20547;-83
2020/12/30 08:45:50;;;;;;;16.30;12.00;;;5.90;99.90;;;;;;4977133;28;20488;-82
2020/12/30 08:48:17;;;;;;;21.40;14.27;;;6.00;99.90;;;;;;4976556;28;20463;-81
2020/12/30 08:50:44;;;;;;;16.23;11.50;;;6.00;99.90;;;;;;4976387;28;20791;-83
2020/12/30 08:53:11;;;;;;;20.23;12.17;;;6.00;99.90;;;;;;4976367;28;20417;-85
2020/12/30 08:58:59;;;;;;;24.00;13.53;;;5.90;99.90;;;;;;4976271;28;20962;-83
2020/12/30 09:01:26;;;;;;;22.10;11.50;;;5.90;99.90;;;;;;4976209;28;20435;-83
2020/12/30 09:07:24;;;;;;;18.87;13.27;;;5.90;99.90;;;;;;4976111;28;20519;-83
2020/12/30 09:10:01;;;;;;;19.23;12.63;;;5.90;99.90;;;;;;4976394;28;20412;-84
2020/12/30 09:12:27;;;;;;;19.77;13.13;;;5.90;99.90;;;;;;4975937;28;20420;-83
2020/12/30 09:18:15;;;;;;;22.83;14.07;;;6.00;99.90;;;;;;4975699;28;20551;-83
2020/12/30 09:20:41;;;;;;;20.83;12.70;;;6.00;99.90;;;;;;4976099;28;20469;-84
2020/12/30 09:23:07;;;;;;;19.93;12.63;;;6.00;99.90;;;;;;4976010;28;20177;-83
2020/12/30 09:25:37;;;;;;;18.90;11.73;;;6.10;99.90;;;;;;4976002;28;20432;-83
2020/12/30 09:31:24;;;;;;;15.53;11.07;;;6.10;99.90;;;;;;4975683;28;20512;-83
2020/12/30 09:33:50;;;;;;;20.17;12.23;;;6.00;99.90;;;;;;4975909;28;20971;-83
2020/12/30 09:36:16;;;;;;;20.23;10.57;;;6.00;99.90;;;;;;4975886;28;20188;-85
2020/12/30 09:38:41;;;;;;;20.37;13.43;;;6.10;99.90;;;;;;4975615;28;20184;-85
2020/12/30 09:41:13;;;;;;;20.23;12.10;;;6.00;99.90;;;;;;4975758;28;20429;-81
2020/12/30 09:43:45;;;;;;;18.20;13.27;;;6.10;99.90;;;;;;4975752;28;20181;-86
2020/12/30 09:49:32;;;;;;;20.53;12.30;;;6.10;99.90;;;;;;4975399;28;20464;-86
2020/12/30 09:55:20;;;;;;;18.33;10.93;;;6.10;99.90;;;;;;4975173;28;20172;-86
2020/12/30 09:57:45;;;;;;;20.23;14.30;;;6.20;99.90;;;;;;4975420;28;20796;-86
2020/12/30 10:03:33;;;;;;;19.77;11.53;;;6.10;99.90;;;;;;4975142;28;20699;-82
2020/12/30 10:05:58;;;;;;;21.23;10.90;;;6.10;99.90;;;;;;4975393;28;20428;-88
2020/12/30 10:08:24;;;;;;;22.63;13.43;;;6.10;99.90;;;;;;4975017;28;20612;-86
2020/12/30 10:14:11;;;;;;;18.63;13.50;;;6.30;99.90;;;;;;4975422;28;20258;-83
2020/12/30 10:16:36;;;;;;;16.53;11.33;;;6.40;99.90;;;;;;4975369;28;20475;-85
2020/12/30 10:19:02;;;;;;;18.60;13.23;;;6.30;99.90;;;;;;4975347;28;20588;-82
2020/12/30 10:21:29;;;;;;;23.87;14.23;;;6.50;99.90;;;;;;4975014;28;20185;-87
2020/12/30 10:23:55;;;;;;;17.50;13.23;;;6.40;99.90;;;;;;4975953;28;20264;-88
2020/12/30 10:26:21;;;;;;;22.43;13.80;;;6.30;99.90;;;;;;4975451;28;20456;-82
2020/12/30 10:32:08;;;;;;;14.27;9.83;;;6.40;99.90;;;;;;4975068;28;20244;-81
2020/12/30 10:34:35;;;;;;;17.97;11.70;;;6.40;99.90;;;;;;4975196;28;20429;-80
2020/12/30 10:37:01;;;;;;;18.47;11.23;;;6.30;99.90;;;;;;4975550;28;20242;-80
2020/12/30 10:39:27;;;;;;;18.10;11.90;;;6.30;99.90;;;;;;4975264;28;20468;-80
2020/12/30 10:41:57;;;;;;;14.50;10.20;;;6.30;99.90;;;;;;4975032;28;20472;-80
2020/12/30 10:44:23;;;;;;;17.77;12.57;;;6.20;99.90;;;;;;4975004;28;20188;-79
2020/12/30 10:46:49;;;;;;;16.20;10.37;;;6.10;99.90;;;;;;4974876;28;20468;-79
2020/12/30 10:49:15;;;;;;;19.57;11.93;;;6.00;99.90;;;;;;4974666;28;20433;-79
2020/12/30 10:51:45;;;;;;;17.53;12.03;;;6.00;99.90;;;;;;4974589;28;20934;-79
2020/12/30 10:54:10;;;;;;;21.03;13.57;;;5.90;99.90;;;;;;4974873;28;20178;-80
2020/12/30 10:56:36;;;;;;;21.07;11.67;;;6.00;99.90;;;;;;4974470;28;20444;-80
2020/12/30 10:59:03;;;;;;;18.70;13.00;;;6.00;99.90;;;;;;4974952;28;20190;-80
2020/12/30 11:01:29;;;;;;;18.37;12.20;;;5.80;99.90;;;;;;4974964;28;20214;-79
2020/12/30 11:03:54;;;;;;;18.97;12.10;;;5.70;99.90;;;;;;4974670;28;20439;-79
2020/12/30 11:06:20;;;;;;;19.40;13.70;;;5.70;99.90;;;;;;4974552;28;20646;-79
2020/12/30 11:08:47;;;;;;;17.47;12.83;;;5.70;99.90;;;;;;4974682;28;20262;-80
2020/12/30 11:11:13;;;;;;;18.30;12.23;;;5.70;99.90;;;;;;4975042;28;20181;-77
2020/12/30 11:13:38;;;;;;;21.27;13.47;;;5.80;99.90;;;;;;4975105;28;20836;-80
2020/12/30 11:16:04;;;;;;;20.23;12.83;;;5.80;99.90;;;;;;4974643;28;20181;-80
2020/12/30 11:18:29;;;;;;;19.23;12.70;;;5.80;99.90;;;;;;4973967;28;20221;-79
2020/12/30 11:24:17;;;;;;;19.00;11.77;;;5.90;99.90;;;;;;4974777;28;20232;-83
2020/12/30 11:26:47;;;;;;;23.97;13.67;;;6.00;99.90;;;;;;4975592;28;20927;-78
2020/12/30 11:29:13;;;;;;;22.43;13.33;;;6.00;99.90;;;;;;4978547;28;20192;-78
2020/12/30 11:31:38;;;;;;;19.57;11.30;;;6.00;99.90;;;;;;4977931;28;20479;-79
2020/12/30 11:34:04;;;;;;;18.03;12.00;;;6.20;99.90;;;;;;4977897;28;20657;-79
2020/12/30 11:39:52;;;;;;;16.67;11.37;;;6.30;99.90;;;;;;4977628;28;20420;-79
2020/12/30 11:45:39;;;;;;;19.87;12.97;;;6.40;99.90;;;;;;4977416;28;20261;-79
2020/12/30 11:48:04;;;;;;;19.50;13.20;;;6.40;99.90;;;;;;4977383;28;20468;-79
2020/12/30 11:53:52;;;;;;;23.20;12.83;;;6.50;99.90;;;;;;4977176;28;20601;-77
2020/12/30 11:56:22;;;;;;;23.80;13.47;;;6.50;99.90;;;;;;4977840;28;20428;-77
2020/12/30 12:02:09;;;;;;;19.63;13.37;;;6.50;99.90;;;;;;4977114;28;20931;-77
2020/12/30 12:07:57;;;;;;;22.60;15.70;;;6.50;99.90;;;;;;4976785;28;20213;-77
2020/12/30 12:10:22;;;;;;;23.13;14.63;;;6.50;99.90;;;;;;4977191;28;20783;-77
2020/12/30 12:12:48;;;;;;;22.70;14.07;;;6.50;99.90;;;;;;4977727;28;20189;-77
2020/12/30 12:15:14;;;;;;;23.97;14.10;;;6.60;99.90;;;;;;4976838;28;20378;-77
2020/12/30 12:17:39;;;;;;;27.80;15.67;;;6.60;99.90;;;;;;4976419;28;20544;-77
2020/12/30 12:20:05;;;;;;;22.77;15.83;;;6.60;99.90;;;;;;4976967;28;20163;-77
2020/12/30 12:25:52;;;;;;;22.67;14.40;;;6.60;99.90;;;;;;4976480;28;20657;-78
2020/12/30 12:31:40;;;;;;;31.13;14.73;;;6.50;99.90;;;;;;4976492;28;20208;-84
2020/12/30 12:37:27;;;;;;;23.70;14.17;;;6.50;99.90;;;;;;4976470;28;20177;-80
2020/12/30 12:39:54;;;;;;;23.57;14.70;;;6.50;99.90;;;;;;4975533;28;20429;-81
2020/12/30 12:42:21;;;;;;;19.70;13.40;;;6.60;99.90;;;;;;4977103;28;20185;-82
2020/12/30 12:48:08;;;;;;;20.03;12.60;;;6.60;99.90;;;;;;4976114;28;20468;-84
2020/12/30 12:53:56;;;;;;;19.77;13.87;;;6.50;99.90;;;;;;4976482;28;20165;-82
2020/12/30 12:56:21;;;;;;;20.80;13.30;;;6.50;99.90;;;;;;4976079;28;20437;-86
2020/12/30 12:58:47;;;;;;;26.23;12.80;;;6.60;99.90;;;;;;4976277;28;20185;-85
2020/12/30 13:01:12;;;;;;;18.40;12.57;;;6.60;99.90;;;;;;4975747;28;20549;-78
2020/12/30 13:03:38;;;;;;;20.63;14.30;;;6.60;99.90;;;;;;4976542;28;20178;-85
2020/12/30 13:06:03;;;;;;;19.20;12.30;;;6.70;99.90;;;;;;4976158;28;20177;-81
2020/12/30 13:08:29;;;;;;;20.80;13.13;;;6.60;99.90;;;;;;4976049;28;20210;-77
2020/12/30 13:14:19;;;;;;;22.47;12.47;;;6.50;99.90;;;;;;4975830;28;20177;-80
2020/12/30 13:23:42;;;;;;;24.57;12.47;;;6.70;99.90;;;;;;4975665;28;20939;-82
2020/12/30 13:26:09;;;;;;;18.57;12.27;;;6.60;99.90;;;;;;4975818;28;20429;-82
2020/12/30 13:31:56;;;;;;;20.37;12.73;;;6.60;99.90;;;;;;4975506;28;20416;-74
2020/12/30 13:37:43;;;;;;;23.37;12.10;;;6.60;99.90;;;;;;4975299;28;20205;-82
2020/12/30 13:40:09;;;;;;;19.90;12.70;;;6.70;99.90;;;;;;4975759;28;20913;-85
2020/12/30 13:42:34;;;;;;;25.00;13.77;;;6.60;99.90;;;;;;4975664;28;20173;-81
2020/12/30 13:45:00;;;;;;;20.20;12.43;;;6.50;99.90;;;;;;4975544;28;20182;-84
2020/12/30 13:47:25;;;;;;;18.93;12.07;;;6.60;99.90;;;;;;4975015;28;20210;-81
2020/12/30 13:49:51;;;;;;;18.13;12.00;;;6.60;99.90;;;;;;4974752;28;20257;-82
2020/12/30 13:55:38;;;;;;;27.30;14.60;;;6.50;99.90;;;;;;4974915;28;20196;-82
2020/12/30 13:58:04;;;;;;;22.20;13.73;;;6.50;99.90;;;;;;4975157;28;20846;-82
2020/12/30 14:03:51;;;;;;;16.53;11.77;;;6.50;99.90;;;;;;4974819;28;20168;-82
2020/12/30 14:06:21;;;;;;;20.17;12.97;;;6.50;99.90;;;;;;4975016;28;20421;-80
2020/12/30 14:08:47;;;;;;;16.03;11.80;;;6.50;99.90;;;;;;4974627;28;20296;-82
2020/12/30 14:11:14;;;;;;;20.13;12.97;;;6.50;99.90;;;;;;4974874;28;20859;-79
2020/12/30 14:17:01;;;;;;;19.67;12.93;;;6.50;99.90;;;;;;4974584;28;20512;-77
2020/12/30 14:19:26;;;;;;;16.70;12.30;;;6.50;99.90;;;;;;4974584;28;20496;-80
2020/12/30 14:25:14;;;;;;;16.17;9.90;;;6.40;99.90;;;;;;4974383;28;20168;-82
2020/12/30 14:27:39;;;;;;;18.13;10.63;;;6.30;99.90;;;;;;4974479;28;20902;-81
2020/12/30 14:30:05;;;;;;;15.80;10.90;;;6.30;99.90;;;;;;4974657;28;20264;-81
2020/12/30 14:32:31;;;;;;;18.33;12.10;;;6.30;99.90;;;;;;4974730;28;20630;-81
2020/12/30 14:34:56;;;;;;;17.80;11.60;;;6.10;99.90;;;;;;4974574;28;20260;-81
2020/12/30 14:37:22;;;;;;;14.67;11.80;;;6.20;99.90;;;;;;4974349;28;20190;-81
2020/12/30 14:39:48;;;;;;;17.90;11.90;;;6.20;99.90;;;;;;4974582;28;20181;-81
2020/12/30 14:42:13;;;;;;;19.07;12.23;;;6.00;99.90;;;;;;4974343;28;20640;-81
2020/12/30 14:44:39;;;;;;;20.17;13.37;;;6.10;99.90;;;;;;4974611;28;20236;-81
2020/12/30 14:47:11;;;;;;;22.90;13.40;;;6.10;99.90;;;;;;4974132;28;20217;-81
2020/12/30 14:49:37;;;;;;;27.00;13.87;;;6.20;99.90;;;;;;4974899;28;20181;-82
2020/12/30 14:55:24;;;;;;;22.33;12.03;;;6.20;99.90;;;;;;4974344;28;20416;-82
2020/12/30 14:57:50;;;;;;;18.80;15.00;;;6.20;99.90;;;;;;4974237;28;20428;-82
2020/12/30 15:00:15;;;;;;;21.53;14.23;;;6.20;99.90;;;;;;4974241;28;20204;-82
2020/12/30 15:02:41;;;;;;;22.23;15.20;;;6.20;99.90;;;;;;4976865;28;20178;-82
2020/12/30 15:05:07;;;;;;;19.37;13.97;;;6.20;99.90;;;;;;4978592;28;20170;-82
2020/12/30 15:07:32;;;;;;;25.03;15.30;;;6.20;99.90;;;;;;4978056;28;20228;-82
2020/12/30 15:09:58;;;;;;;29.87;16.33;;;6.20;99.90;;;;;;4978217;28;20584;-82
2020/12/30 15:12:23;;;;;;;22.67;15.70;;;6.20;99.90;;;;;;4978304;28;20197;-82
2020/12/30 15:14:49;;;;;;;25.40;15.10;;;6.20;99.90;;;;;;4978031;28;20177;-82
2020/12/30 15:17:14;;;;;;;34.77;16.90;;;6.20;99.90;;;;;;4978586;28;20181;-81
2020/12/30 15:19:40;;;;;;;23.80;14.60;;;6.20;99.90;;;;;;4977646;28;20222;-82
2020/12/30 15:22:06;;;;;;;27.83;16.93;;;6.20;99.90;;;;;;4978083;28;20232;-81
2020/12/30 15:24:31;;;;;;;22.80;15.10;;;6.20;99.90;;;;;;4978286;28;20189;-82
2020/12/30 15:26:57;;;;;;;29.67;18.33;;;6.20;99.90;;;;;;4977493;28;20446;-82
2020/12/30 15:29:22;;;;;;;26.37;18.00;;;6.30;99.90;;;;;;4977919;28;20522;-81
2020/12/30 15:31:48;;;;;;;25.43;16.83;;;6.40;99.90;;;;;;4977682;28;20174;-82
2020/12/30 15:34:14;;;;;;;34.10;17.97;;;6.40;99.90;;;;;;4977704;28;20671;-82
2020/12/30 15:36:40;;;;;;;29.57;18.80;;;6.40;99.90;;;;;;4977805;28;20173;-82
2020/12/30 15:39:05;;;;;;;26.83;16.90;;;6.30;99.90;;;;;;4977881;28;20487;-82
2020/12/30 15:41:31;;;;;;;25.63;15.50;;;6.20;99.90;;;;;;4977642;28;20186;-82
2020/12/30 15:43:56;;;;;;;26.83;17.73;;;6.30;99.90;;;;;;4977411;28;20244;-76
2020/12/30 15:46:22;;;;;;;25.50;14.90;;;6.40;99.90;;;;;;4977612;28;20648;-75
2020/12/30 15:52:09;;;;;;;24.60;17.33;;;6.40;99.90;;;;;;4977276;28;20236;-82
2020/12/30 15:54:34;;;;;;;24.40;14.60;;;6.60;99.90;;;;;;4977151;28;20425;-76
2020/12/30 15:57:00;;;;;;;24.70;14.20;;;6.60;99.90;;;;;;4977523;28;20170;-77
2020/12/30 16:02:48;;;;;;;24.73;16.00;;;6.60;99.90;;;;;;4977003;28;20171;-75
2020/12/30 16:05:13;;;;;;;26.73;16.80;;;6.60;99.90;;;;;;4977111;28;20432;-86
2020/12/30 16:07:39;;;;;;;23.80;15.87;;;6.60;99.90;;;;;;4977151;28;20479;-83
2020/12/30 16:10:05;;;;;;;23.07;15.50;;;6.60;99.90;;;;;;4977147;28;20189;-85
2020/12/30 16:12:30;;;;;;;24.87;17.20;;;6.50;99.90;;;;;;4976707;28;20177;-75
2020/12/30 16:14:56;;;;;;;21.47;16.67;;;6.70;99.90;;;;;;4976080;28;20656;-85
2020/12/30 16:17:21;;;;;;;25.10;16.47;;;6.50;99.90;;;;;;4977278;28;20620;-84
2020/12/30 16:19:47;;;;;;;24.67;17.00;;;6.60;99.90;;;;;;4976456;28;20225;-85
2020/12/30 16:22:12;;;;;;;25.40;17.30;;;6.70;99.90;;;;;;4977086;28;20205;-85
2020/12/30 16:24:38;;;;;;;24.73;17.30;;;6.60;99.90;;;;;;4976781;28;20208;-84
2020/12/30 16:27:03;;;;;;;24.83;16.80;;;6.50;99.90;;;;;;4976451;28;20276;-84
2020/12/30 16:29:29;;;;;;;28.67;18.63;;;6.60;99.90;;;;;;4976630;28;20213;-84
2020/12/30 16:31:54;;;;;;;28.83;19.67;;;6.70;99.90;;;;;;4976457;28;20174;-85
2020/12/30 16:37:42;;;;;;;23.93;17.17;;;6.70;99.90;;;;;;4975913;28;20172;-84
2020/12/30 16:43:30;;;;;;;26.63;14.57;;;6.70;99.90;;;;;;4976175;28;20229;-84
2020/12/30 16:46:00;;;;;;;26.30;17.83;;;6.80;99.90;;;;;;4976139;28;20433;-84
2020/12/30 16:48:26;;;;;;;24.37;16.90;;;6.70;99.90;;;;;;4976454;28;20468;-85
2020/12/30 16:50:51;;;;;;;25.43;16.50;;;6.60;99.90;;;;;;4976748;28;20927;-85
2020/12/30 16:53:17;;;;;;;22.10;16.47;;;6.70;99.90;;;;;;4976836;28;20429;-86
2020/12/30 16:55:42;;;;;;;25.50;17.33;;;6.80;99.90;;;;;;4976558;28;20166;-84
2020/12/30 16:58:09;;;;;;;24.50;17.17;;;6.70;99.90;;;;;;4976939;28;20184;-83
2020/12/30 17:00:35;;;;;;;28.13;15.70;;;6.60;99.90;;;;;;4977111;28;20180;-84
2020/12/30 17:06:22;;;;;;;25.00;15.97;;;6.60;99.90;;;;;;4976534;28;20169;-84
2020/12/30 17:08:48;;;;;;;22.70;15.23;;;6.70;99.90;;;;;;4977191;28;20473;-82
2020/12/30 17:14:36;;;;;;;24.40;14.77;;;6.70;99.90;;;;;;4976661;28;20580;-84
2020/12/30 17:17:02;;;;;;;22.20;15.30;;;6.60;99.90;;;;;;4979348;28;20417;-89
2020/12/30 17:22:56;;;;;;;23.67;15.70;;;6.70;99.90;;;;;;4968695;28;20888;-89
2020/12/30 17:28:44;;;;;;;21.30;14.70;;;6.70;99.90;;;;;;4977285;28;20252;-88
2020/12/30 17:31:10;;;;;;;27.97;16.90;;;6.80;99.90;;;;;;4976689;28;20533;-89
2020/12/30 17:36:58;;;;;;;28.30;15.43;;;6.60;99.90;;;;;;4976921;28;20526;-88
2020/12/30 17:42:45;;;;;;;25.30;15.00;;;6.60;99.90;;;;;;4976340;28;20787;-89
2020/12/30 17:48:35;;;;;;;24.93;15.93;;;6.60;99.90;;;;;;4976699;28;20208;-90
2020/12/30 17:51:02;;;;;;;25.07;16.33;;;6.60;99.90;;;;;;4976498;28;20479;-89
2020/12/30 17:53:27;;;;;;;25.63;15.90;;;6.70;99.90;;;;;;4976080;28;20473;-90
2020/12/30 17:55:53;;;;;;;23.50;15.77;;;6.70;99.90;;;;;;4976739;28;20430;-90
2020/12/30 17:58:18;;;;;;;24.13;16.60;;;6.70;99.90;;;;;;4977129;28;20225;-89
2020/12/30 18:04:05;;;;;;;23.20;15.40;;;6.80;99.90;;;;;;4977104;28;20205;-88
2020/12/30 18:09:53;;;;;;;23.40;16.03;;;6.60;99.90;;;;;;4975344;28;20216;-84
2020/12/30 18:15:41;;;;;;;26.03;15.57;;;6.60;99.90;;;;;;4974959;28;20212;-80
2020/12/30 18:18:07;;;;;;;21.63;14.60;;;6.70;99.90;;;;;;4974683;28;20450;-84
2020/12/30 18:20:33;;;;;;;26.27;16.00;;;6.70;99.90;;;;;;4974699;28;20917;-83
2020/12/30 18:22:59;;;;;;;28.77;15.83;;;6.70;99.90;;;;;;4974538;28;20472;-83
2020/12/30 18:25:24;;;;;;;24.90;14.87;;;6.70;99.90;;;;;;4974912;28;20199;-84
2020/12/30 18:27:50;;;;;;;27.70;15.87;;;6.70;99.90;;;;;;4975204;28;20280;-91
2020/12/30 18:30:15;;;;;;;24.70;14.90;;;6.80;99.90;;;;;;4975305;28;20181;-87
2020/12/30 18:32:41;;;;;;;33.17;15.93;;;6.80;99.90;;;;;;4975444;28;20213;-89
2020/12/30 18:38:29;;;;;;;21.70;13.63;;;6.80;99.90;;;;;;4976144;28;20519;-90
2020/12/30 18:40:55;;;;;;;22.57;14.47;;;6.80;99.90;;;;;;4975201;28;20433;-89
2020/12/30 18:43:20;;;;;;;29.03;15.80;;;6.70;99.90;;;;;;4975134;28;20412;-90
2020/12/30 18:45:46;;;;;;;24.33;14.27;;;6.70;99.90;;;;;;4975698;28;20521;-89
2020/12/30 18:48:11;;;;;;;25.33;13.83;;;6.60;99.90;;;;;;4984395;28;20208;-82
2020/12/30 18:50:37;;;;;;;20.97;13.23;;;6.60;99.90;;;;;;4976353;28;20181;-85
2020/12/30 18:53:02;;;;;;;24.27;13.40;;;6.60;99.90;;;;;;4974817;28;20261;-85
2020/12/30 18:58:50;;;;;;;19.23;13.00;;;6.60;99.90;;;;;;4974550;28;20163;-85
2020/12/30 19:04:38;;;;;;;27.53;14.43;;;6.70;99.90;;;;;;4974461;28;20567;-86
2020/12/30 19:07:04;;;;;;;20.33;12.30;;;6.70;99.90;;;;;;4974352;28;20532;-87
2020/12/30 19:09:29;;;;;;;18.40;12.00;;;6.70;99.90;;;;;;4974671;28;20349;-87
2020/12/30 19:11:55;;;;;;;19.57;12.57;;;6.70;99.90;;;;;;4974384;28;20174;-78
2020/12/30 19:17:42;;;;;;;22.20;12.20;;;6.60;99.90;;;;;;4974306;28;20212;-79
2020/12/30 19:20:07;;;;;;;20.63;12.60;;;6.60;99.90;;;;;;4974296;28;20417;-86
2020/12/30 19:22:33;;;;;;;20.37;11.80;;;6.60;99.90;;;;;;4972680;28;20320;-79
2020/12/30 19:24:58;;;;;;;19.00;13.10;;;6.60;99.90;;;;;;4974477;28;20647;-83
2020/12/30 19:30:46;;;;;;;17.70;11.90;;;6.50;99.90;;;;;;4974751;28;20221;-89
2020/12/30 19:33:11;;;;;;;20.60;11.63;;;6.60;99.90;;;;;;4974360;28;20417;-84
2020/12/30 19:35:37;;;;;;;16.50;12.37;;;6.80;99.90;;;;;;4974315;28;20201;-78
2020/12/30 19:38:04;;;;;;;19.50;11.77;;;6.80;99.90;;;;;;4974643;28;20178;-76
2020/12/30 19:40:30;;;;;;;22.17;12.57;;;6.80;99.90;;;;;;4974302;28;20500;-86
2020/12/30 19:42:55;;;;;;;17.97;11.83;;;6.80;99.90;;;;;;4974284;28;20520;-86
2020/12/30 19:45:21;;;;;;;20.20;13.07;;;6.80;99.90;;;;;;4974362;28;20192;-85
2020/12/30 19:47:46;;;;;;;18.77;12.20;;;6.80;99.90;;;;;;4975557;28;20213;-88
2020/12/30 19:50:12;;;;;;;19.30;11.67;;;6.70;99.90;;;;;;4977438;28;20225;-83
2020/12/30 19:52:38;;;;;;;19.83;11.63;;;6.70;99.90;;;;;;4976236;28;20177;-80
2020/12/30 19:55:05;;;;;;;18.87;12.07;;;6.70;99.90;;;;;;4978226;28;20177;-80
2020/12/30 19:57:31;;;;;;;16.30;10.50;;;6.80;99.90;;;;;;4977708;28;20523;-80
2020/12/30 19:59:56;;;;;;;16.87;11.20;;;6.80;99.90;;;;;;4977665;28;20424;-86
2020/12/30 20:02:22;;;;;;;13.03;10.10;;;6.80;99.90;;;;;;4978757;28;20433;-84
2020/12/30 20:04:47;;;;;;;12.10;9.27;;;6.80;99.90;;;;;;4977946;28;20229;-85